sensor_id;sensor_type;location;lat;lon;timestamp;pressure;altitude;pressure_sealevel;temperature;humidity
8894;BME280;4483;48.622;9.230;2023-04-09T00:00:03;98541.09;;;7.71;95.44
8894;BME280;4483;48.622;9.230;2023-04-09T00:02:30;98547.88;;;7.72;95.30
8894;BME280;4483;48.622;9.230;2023-04-09T00:04:56;98545.31;;;7.72;95.31
8894;BME280;4483;48.622;9.230;2023-04-09T00:07:23;98546.22;;;7.69;95.26
8894;BME280;4483;48.622;9.230;2023-04-09T00:09:49;98541.13;;;7.68;95.18
8894;BME280;4483;48.622;9.230;2023-04-09T00:12:16;98536.91;;;7.64;95.36
8894;BME280;4483;48.622;9.230;2023-04-09T00:14:44;98544.59;;;7.65;95.57
8894;BME280;4483;48.622;9.230;2023-04-09T00:17:11;98543.72;;;7.66;95.59
8894;BME280;4483;48.622;9.230;2023-04-09T00:19:38;98543.72;;;7.66;95.67
8894;BME280;4483;48.622;9.230;2023-04-09T00:22:05;98542.00;;;7.67;95.66
8894;BME280;4483;48.622;9.230;2023-04-09T00:24:31;98539.44;;;7.67;95.70
8894;BME280;4483;48.622;9.230;2023-04-09T00:26:58;98535.94;;;7.69;95.79
8894;BME280;4483;48.622;9.230;2023-04-09T00:29:25;98541.09;;;7.69;95.76
8894;BME280;4483;48.622;9.230;2023-04-09T00:31:52;98535.13;;;7.69;95.73
8894;BME280;4483;48.622;9.230;2023-04-09T00:34:19;98540.25;;;7.69;95.96
8894;BME280;4483;48.622;9.230;2023-04-09T00:36:46;98535.97;;;7.68;95.76
8894;BME280;4483;48.622;9.230;2023-04-09T00:39:14;98539.44;;;7.67;95.80
8894;BME280;4483;48.622;9.230;2023-04-09T00:41:40;98535.25;;;7.61;96.18
8894;BME280;4483;48.622;9.230;2023-04-09T00:44:07;98539.47;;;7.64;96.04
8894;BME280;4483;48.622;9.230;2023-04-09T00:46:34;98533.53;;;7.62;95.70
8894;BME280;4483;48.622;9.230;2023-04-09T00:49:02;98533.53;;;7.62;96.10
8894;BME280;4483;48.622;9.230;2023-04-09T00:51:28;98540.44;;;7.60;96.16
8894;BME280;4483;48.622;9.230;2023-04-09T00:53:55;98540.47;;;7.57;96.27
8894;BME280;4483;48.622;9.230;2023-04-09T00:56:22;98529.38;;;7.56;96.51
8894;BME280;4483;48.622;9.230;2023-04-09T00:58:49;98537.91;;;7.57;96.54
8894;BME280;4483;48.622;9.230;2023-04-09T01:01:16;98537.03;;;7.58;96.69
8894;BME280;4483;48.622;9.230;2023-04-09T01:03:43;98534.50;;;7.55;96.62
8894;BME280;4483;48.622;9.230;2023-04-09T01:06:15;98527.66;;;7.55;96.65
8894;BME280;4483;48.622;9.230;2023-04-09T01:08:48;98527.66;;;7.55;96.61
8894;BME280;4483;48.622;9.230;2023-04-09T01:11:26;98527.69;;;7.54;96.91
8894;BME280;4483;48.622;9.230;2023-04-09T01:14:00;98527.66;;;7.55;96.63
8894;BME280;4483;48.622;9.230;2023-04-09T01:16:31;98531.13;;;7.54;96.82
8894;BME280;4483;48.622;9.230;2023-04-09T01:19:04;98533.69;;;7.54;96.93
8894;BME280;4483;48.622;9.230;2023-04-09T01:21:34;98530.25;;;7.54;96.81
8894;BME280;4483;48.622;9.230;2023-04-09T01:24:09;98530.28;;;7.52;96.54
8894;BME280;4483;48.622;9.230;2023-04-09T01:26:47;98532.03;;;7.50;96.87
8894;BME280;4483;48.622;9.230;2023-04-09T01:29:23;98530.38;;;7.48;96.76
8894;BME280;4483;48.622;9.230;2023-04-09T01:31:50;98536.41;;;7.45;96.73
8894;BME280;4483;48.622;9.230;2023-04-09T01:34:19;98531.28;;;7.44;96.86
8894;BME280;4483;48.622;9.230;2023-04-09T01:36:50;98532.16;;;7.43;96.87
8894;BME280;4483;48.622;9.230;2023-04-09T01:39:17;98528.75;;;7.42;96.90
8894;BME280;4483;48.622;9.230;2023-04-09T01:41:45;98533.91;;;7.41;97.12
8894;BME280;4483;48.622;9.230;2023-04-09T01:44:12;98527.09;;;7.40;97.27
8894;BME280;4483;48.622;9.230;2023-04-09T01:46:41;98532.19;;;7.41;97.25
8894;BME280;4483;48.622;9.230;2023-04-09T01:49:08;98533.06;;;7.40;97.20
8894;BME280;4483;48.622;9.230;2023-04-09T01:51:35;98532.22;;;7.40;97.45
8894;BME280;4483;48.622;9.230;2023-04-09T01:54:02;98537.34;;;7.40;97.42
8894;BME280;4483;48.622;9.230;2023-04-09T01:56:39;98531.41;;;7.38;97.08
8894;BME280;4483;48.622;9.230;2023-04-09T01:59:06;98533.97;;;7.38;97.27
8894;BME280;4483;48.622;9.230;2023-04-09T02:01:37;98535.72;;;7.36;97.26
8894;BME280;4483;48.622;9.230;2023-04-09T02:04:09;98540.84;;;7.36;97.06
8894;BME280;4483;48.622;9.230;2023-04-09T02:06:50;98544.25;;;7.35;97.41
8894;BME280;4483;48.622;9.230;2023-04-09T02:09:20;98535.75;;;7.34;97.42
8894;BME280;4483;48.622;9.230;2023-04-09T02:11:47;98542.59;;;7.34;97.35
8894;BME280;4483;48.622;9.230;2023-04-09T02:14:16;98540.06;;;7.32;97.53
8894;BME280;4483;48.622;9.230;2023-04-09T02:16:45;98540.06;;;7.31;97.61
8894;BME280;4483;48.622;9.230;2023-04-09T02:19:13;98543.47;;;7.31;97.57
8894;BME280;4483;48.622;9.230;2023-04-09T02:21:39;98536.66;;;7.30;97.58
8894;BME280;4483;48.622;9.230;2023-04-09T02:24:06;98541.78;;;7.30;97.54
8894;BME280;4483;48.622;9.230;2023-04-09T02:26:33;98532.38;;;7.31;97.49
8894;BME280;4483;48.622;9.230;2023-04-09T02:29:00;98529.88;;;7.26;97.43
8894;BME280;4483;48.622;9.230;2023-04-09T02:31:26;98528.25;;;7.22;97.41
8894;BME280;4483;48.622;9.230;2023-04-09T02:33:54;98528.28;;;7.21;97.58
8894;BME280;4483;48.622;9.230;2023-04-09T02:36:22;98523.19;;;7.19;97.76
8894;BME280;4483;48.622;9.230;2023-04-09T02:38:49;98528.31;;;7.19;97.52
8894;BME280;4483;48.622;9.230;2023-04-09T02:41:15;98520.63;;;7.16;97.75
8894;BME280;4483;48.622;9.230;2023-04-09T02:43:42;98530.00;;;7.19;97.55
8894;BME280;4483;48.622;9.230;2023-04-09T02:46:09;98536.03;;;7.18;98.26
8894;BME280;4483;48.622;9.230;2023-04-09T02:48:35;98530.91;;;7.16;97.71
8894;BME280;4483;48.622;9.230;2023-04-09T02:51:04;98534.41;;;7.12;97.65
8894;BME280;4483;48.622;9.230;2023-04-09T02:53:32;98531.03;;;7.07;97.61
8894;BME280;4483;48.622;9.230;2023-04-09T02:55:58;98532.81;;;7.03;98.13
8894;BME280;4483;48.622;9.230;2023-04-09T02:58:25;98534.53;;;7.01;98.32
8894;BME280;4483;48.622;9.230;2023-04-09T03:00:51;98529.47;;;6.98;98.12
8894;BME280;4483;48.622;9.230;2023-04-09T03:03:18;98529.50;;;6.97;98.27
8894;BME280;4483;48.622;9.230;2023-04-09T03:05:45;98526.94;;;6.97;98.23
8894;BME280;4483;48.622;9.230;2023-04-09T03:08:12;98523.50;;;6.98;98.81
8894;BME280;4483;48.622;9.230;2023-04-09T03:10:40;98529.47;;;6.98;99.00
8894;BME280;4483;48.622;9.230;2023-04-09T03:13:07;98526.91;;;6.98;99.14
8894;BME280;4483;48.622;9.230;2023-04-09T03:15:33;98521.81;;;6.97;98.75
8894;BME280;4483;48.622;9.230;2023-04-09T03:18:00;98522.69;;;6.97;98.81
8894;BME280;4483;48.622;9.230;2023-04-09T03:20:27;98520.97;;;6.96;99.13
8894;BME280;4483;48.622;9.230;2023-04-09T03:22:53;98522.69;;;6.97;99.13
8894;BME280;4483;48.622;9.230;2023-04-09T03:25:20;98522.69;;;6.97;99.27
8894;BME280;4483;48.622;9.230;2023-04-09T03:27:48;98517.56;;;6.97;99.00
8894;BME280;4483;48.622;9.230;2023-04-09T03:30:15;98517.56;;;6.97;98.90
8894;BME280;4483;48.622;9.230;2023-04-09T03:32:41;98517.59;;;6.94;98.62
8894;BME280;4483;48.622;9.230;2023-04-09T03:35:08;98519.31;;;6.92;98.99
8894;BME280;4483;48.622;9.230;2023-04-09T03:37:35;98521.88;;;6.92;99.38
8894;BME280;4483;48.622;9.230;2023-04-09T03:40:01;98527.88;;;6.91;98.95
8894;BME280;4483;48.622;9.230;2023-04-09T03:42:28;98523.63;;;6.92;99.11
8894;BME280;4483;48.622;9.230;2023-04-09T03:44:56;98527.00;;;6.92;99.37
8894;BME280;4483;48.622;9.230;2023-04-09T03:47:23;98513.44;;;6.87;99.15
8894;BME280;4483;48.622;9.230;2023-04-09T03:49:50;98519.34;;;6.91;99.42
8894;BME280;4483;48.622;9.230;2023-04-09T03:52:16;98518.50;;;6.90;99.44
8894;BME280;4483;48.622;9.230;2023-04-09T03:54:43;98516.00;;;6.87;99.46
8894;BME280;4483;48.622;9.230;2023-04-09T03:57:10;98510.94;;;6.83;99.26
8894;BME280;4483;48.622;9.230;2023-04-09T03:59:36;98510.09;;;6.82;99.79
8894;BME280;4483;48.622;9.230;2023-04-09T04:02:04;98518.59;;;6.84;99.75
8894;BME280;4483;48.622;9.230;2023-04-09T04:04:31;98512.66;;;6.82;99.67
8894;BME280;4483;48.622;9.230;2023-04-09T04:06:58;98511.78;;;6.83;99.96
8894;BME280;4483;48.622;9.230;2023-04-09T04:09:24;98511.78;;;6.83;99.63
8894;BME280;4483;48.622;9.230;2023-04-09T04:11:51;98509.28;;;6.80;99.71
8894;BME280;4483;48.622;9.230;2023-04-09T04:14:18;98516.13;;;6.78;99.53
8894;BME280;4483;48.622;9.230;2023-04-09T04:16:44;98512.75;;;6.76;99.51
8894;BME280;4483;48.622;9.230;2023-04-09T04:19:12;98516.19;;;6.75;99.54
8894;BME280;4483;48.622;9.230;2023-04-09T04:21:39;98515.34;;;6.73;100.00
8894;BME280;4483;48.622;9.230;2023-04-09T04:24:05;98527.31;;;6.73;99.79
8894;BME280;4483;48.622;9.230;2023-04-09T04:26:32;98515.38;;;6.72;99.73
8894;BME280;4483;48.622;9.230;2023-04-09T04:28:59;98521.38;;;6.69;99.92
8894;BME280;4483;48.622;9.230;2023-04-09T04:31:25;98524.81;;;6.67;100.00
8894;BME280;4483;48.622;9.230;2023-04-09T04:33:52;98529.09;;;6.68;99.86
8894;BME280;4483;48.622;9.230;2023-04-09T04:36:20;98529.13;;;6.65;100.00
8894;BME280;4483;48.622;9.230;2023-04-09T04:38:46;98524.09;;;6.60;99.45
8894;BME280;4483;48.622;9.230;2023-04-09T04:41:13;98526.63;;;6.62;99.71
8894;BME280;4483;48.622;9.230;2023-04-09T04:43:39;98531.72;;;6.62;99.66
8894;BME280;4483;48.622;9.230;2023-04-09T04:46:06;98537.72;;;6.62;99.68
8894;BME280;4483;48.622;9.230;2023-04-09T04:48:33;98541.94;;;6.63;100.00
8894;BME280;4483;48.622;9.230;2023-04-09T04:51:00;98536.06;;;6.57;100.00
8894;BME280;4483;48.622;9.230;2023-04-09T04:53:28;98536.09;;;6.55;100.00
8894;BME280;4483;48.622;9.230;2023-04-09T04:55:55;98538.66;;;6.55;100.00
8894;BME280;4483;48.622;9.230;2023-04-09T04:58:21;98550.63;;;6.55;99.94
8894;BME280;4483;48.622;9.230;2023-04-09T05:00:48;98548.91;;;6.54;100.00
8894;BME280;4483;48.622;9.230;2023-04-09T05:03:15;98542.06;;;6.54;100.00
8894;BME280;4483;48.622;9.230;2023-04-09T05:05:41;98546.28;;;6.58;100.00
8894;BME280;4483;48.622;9.230;2023-04-09T05:08:09;98546.22;;;6.64;100.00
8894;BME280;4483;48.622;9.230;2023-04-09T05:10:39;98548.66;;;6.73;100.00
8894;BME280;4483;48.622;9.230;2023-04-09T05:13:06;98541.66;;;6.84;100.00
8894;BME280;4483;48.622;9.230;2023-04-09T05:15:32;98534.63;;;6.97;100.00
8894;BME280;4483;48.622;9.230;2023-04-09T05:18:02;98530.22;;;7.06;99.71
8894;BME280;4483;48.622;9.230;2023-04-09T05:20:30;98539.50;;;7.13;99.63
8894;BME280;4483;48.622;9.230;2023-04-09T05:22:57;98530.09;;;7.14;99.33
8894;BME280;4483;48.622;9.230;2023-04-09T05:25:24;98540.34;;;7.14;98.98
8894;BME280;4483;48.622;9.230;2023-04-09T05:27:53;98530.06;;;7.16;98.91
8894;BME280;4483;48.622;9.230;2023-04-09T05:30:20;98535.97;;;7.21;99.31
8894;BME280;4483;48.622;9.230;2023-04-09T05:32:47;98525.56;;;7.30;99.14
8894;BME280;4483;48.622;9.230;2023-04-09T05:35:13;98534.63;;;7.49;99.14
8894;BME280;4483;48.622;9.230;2023-04-09T05:37:40;98535.06;;;7.72;98.90
8894;BME280;4483;48.622;9.230;2023-04-09T05:40:08;98531.94;;;8.02;98.76
8894;BME280;4483;48.622;9.230;2023-04-09T05:42:35;98528.75;;;8.32;97.80
8894;BME280;4483;48.622;9.230;2023-04-09T05:45:04;98531.69;;;8.55;96.43
8894;BME280;4483;48.622;9.230;2023-04-09T05:47:31;98530.41;;;8.74;95.76
8894;BME280;4483;48.622;9.230;2023-04-09T05:49:58;98525.66;;;8.94;95.21
8894;BME280;4483;48.622;9.230;2023-04-09T05:52:24;98529.16;;;9.27;95.62
8894;BME280;4483;48.622;9.230;2023-04-09T05:54:51;98531.75;;;9.61;95.19
8894;BME280;4483;48.622;9.230;2023-04-09T05:57:18;98525.84;;;9.88;93.24
8894;BME280;4483;48.622;9.230;2023-04-09T05:59:44;98532.03;;;10.13;92.30
8894;BME280;4483;48.622;9.230;2023-04-09T06:02:12;98529.63;;;10.38;91.17
8894;BME280;4483;48.622;9.230;2023-04-09T06:04:39;98531.78;;;10.51;89.67
8894;BME280;4483;48.622;9.230;2023-04-09T06:07:06;98535.91;;;10.58;89.22
8894;BME280;4483;48.622;9.230;2023-04-09T06:09:32;98537.13;;;10.74;89.00
8894;BME280;4483;48.622;9.230;2023-04-09T06:11:59;98541.66;;;10.94;88.11
8894;BME280;4483;48.622;9.230;2023-04-09T06:14:26;98535.06;;;11.13;86.83
8894;BME280;4483;48.622;9.230;2023-04-09T06:16:53;98535.38;;;11.29;86.35
8894;BME280;4483;48.622;9.230;2023-04-09T06:19:22;98534.94;;;11.42;85.00
8894;BME280;4483;48.622;9.230;2023-04-09T06:21:48;98533.91;;;11.48;82.59
8894;BME280;4483;48.622;9.230;2023-04-09T06:24:15;98526.84;;;11.53;82.56
8894;BME280;4483;48.622;9.230;2023-04-09T06:26:42;98530.09;;;11.58;82.49
8894;BME280;4483;48.622;9.230;2023-04-09T06:29:08;98525.75;;;11.60;81.56
8894;BME280;4483;48.622;9.230;2023-04-09T06:31:36;98526.38;;;11.68;80.19
8894;BME280;4483;48.622;9.230;2023-04-09T06:34:03;98523.47;;;11.77;80.70
8894;BME280;4483;48.622;9.230;2023-04-09T06:36:31;98522.47;;;11.81;77.23
8894;BME280;4483;48.622;9.230;2023-04-09T06:38:58;98527.63;;;11.81;76.45
8894;BME280;4483;48.622;9.230;2023-04-09T06:41:24;98524.03;;;11.85;74.98
8894;BME280;4483;48.622;9.230;2023-04-09T06:43:53;98527.00;;;11.99;76.96
8894;BME280;4483;48.622;9.230;2023-04-09T06:46:19;98538.78;;;12.06;76.20
8894;BME280;4483;48.622;9.230;2023-04-09T06:48:46;98539.91;;;12.22;74.99
8894;BME280;4483;48.622;9.230;2023-04-09T06:51:13;98537.66;;;12.36;73.98
8894;BME280;4483;48.622;9.230;2023-04-09T06:53:41;98533.00;;;12.46;73.11
8894;BME280;4483;48.622;9.230;2023-04-09T06:56:08;98540.88;;;12.66;72.23
8894;BME280;4483;48.622;9.230;2023-04-09T06:58:35;98536.91;;;12.79;71.26
8894;BME280;4483;48.622;9.230;2023-04-09T07:01:01;98540.31;;;13.02;68.68
8894;BME280;4483;48.622;9.230;2023-04-09T07:03:28;98538.72;;;13.22;68.68
8894;BME280;4483;48.622;9.230;2023-04-09T07:05:55;98532.84;;;13.38;68.36
8894;BME280;4483;48.622;9.230;2023-04-09T07:08:22;98529.38;;;13.59;69.80
8894;BME280;4483;48.622;9.230;2023-04-09T07:10:50;98535.25;;;13.83;67.29
8894;BME280;4483;48.622;9.230;2023-04-09T07:13:16;98536.16;;;14.02;66.31
8894;BME280;4483;48.622;9.230;2023-04-09T07:15:43;98531.34;;;14.13;63.96
8894;BME280;4483;48.622;9.230;2023-04-09T07:18:09;98535.84;;;14.30;65.35
8894;BME280;4483;48.622;9.230;2023-04-09T07:20:36;98531.78;;;14.43;63.08
8894;BME280;4483;48.622;9.230;2023-04-09T07:23:03;98532.28;;;14.69;63.77
8894;BME280;4483;48.622;9.230;2023-04-09T07:25:29;98530.38;;;14.91;60.79
8894;BME280;4483;48.622;9.230;2023-04-09T07:27:58;98534.25;;;15.19;60.06
8894;BME280;4483;48.622;9.230;2023-04-09T07:30:24;98535.94;;;15.20;59.58
8894;BME280;4483;48.622;9.230;2023-04-09T07:32:51;98529.28;;;15.31;58.06
8894;BME280;4483;48.622;9.230;2023-04-09T07:35:18;98524.94;;;15.32;58.22
8894;BME280;4483;48.622;9.230;2023-04-09T07:37:45;98535.03;;;15.38;55.60
8894;BME280;4483;48.622;9.230;2023-04-09T07:40:12;98538.34;;;15.41;57.05
8894;BME280;4483;48.622;9.230;2023-04-09T07:42:38;98538.13;;;15.46;55.98
8894;BME280;4483;48.622;9.230;2023-04-09T07:45:08;98548.22;;;15.52;56.40
8894;BME280;4483;48.622;9.230;2023-04-09T07:47:35;98542.91;;;15.36;56.06
8894;BME280;4483;48.622;9.230;2023-04-09T07:50:01;98548.34;;;15.13;55.25
8894;BME280;4483;48.622;9.230;2023-04-09T07:52:28;98553.94;;;15.23;52.66
8894;BME280;4483;48.622;9.230;2023-04-09T07:54:55;98561.41;;;15.11;52.18
8894;BME280;4483;48.622;9.230;2023-04-09T07:57:21;98553.41;;;15.16;51.78
8894;BME280;4483;48.622;9.230;2023-04-09T07:59:48;98556.38;;;15.44;52.31
8894;BME280;4483;48.622;9.230;2023-04-09T08:02:16;98555.47;;;15.45;51.17
8894;BME280;4483;48.622;9.230;2023-04-09T08:04:43;98559.22;;;15.57;50.91
8894;BME280;4483;48.622;9.230;2023-04-09T08:07:09;98556.47;;;15.94;50.79
8894;BME280;4483;48.622;9.230;2023-04-09T08:09:36;98546.84;;;15.96;50.00
8894;BME280;4483;48.622;9.230;2023-04-09T08:12:03;98555.34;;;15.30;50.55
8894;BME280;4483;48.622;9.230;2023-04-09T08:14:30;98552.28;;;15.39;51.00
8894;BME280;4483;48.622;9.230;2023-04-09T08:16:58;98554.19;;;15.71;50.66
8894;BME280;4483;48.622;9.230;2023-04-09T08:19:27;98556.63;;;15.91;49.09
8894;BME280;4483;48.622;9.230;2023-04-09T08:21:53;98543.50;;;16.27;49.48
8894;BME280;4483;48.622;9.230;2023-04-09T08:24:20;98537.56;;;16.40;47.23
8894;BME280;4483;48.622;9.230;2023-04-09T08:26:47;98542.53;;;16.77;47.61
8894;BME280;4483;48.622;9.230;2023-04-09T08:29:14;98545.28;;;17.05;47.25
8894;BME280;4483;48.622;9.230;2023-04-09T08:31:41;98546.84;;;17.24;45.88
8894;BME280;4483;48.622;9.230;2023-04-09T08:34:08;98553.69;;;16.14;44.98
8894;BME280;4483;48.622;9.230;2023-04-09T08:36:36;98561.75;;;15.23;45.94
8894;BME280;4483;48.622;9.230;2023-04-09T08:39:02;98571.94;;;14.71;46.99
8894;BME280;4483;48.622;9.230;2023-04-09T08:41:29;98574.56;;;14.33;48.30
8894;BME280;4483;48.622;9.230;2023-04-09T08:43:56;98564.41;;;14.08;49.85
8894;BME280;4483;48.622;9.230;2023-04-09T08:46:23;98576.84;;;13.80;49.71
8894;BME280;4483;48.622;9.230;2023-04-09T08:48:51;98569.44;;;13.51;50.05
8894;BME280;4483;48.622;9.230;2023-04-09T08:51:19;98580.16;;;13.42;50.88
8894;BME280;4483;48.622;9.230;2023-04-09T08:53:52;98568.06;;;13.21;51.90
8894;BME280;4483;48.622;9.230;2023-04-09T08:56:21;98574.38;;;13.13;52.00
8894;BME280;4483;48.622;9.230;2023-04-09T08:58:48;98572.44;;;13.19;51.91
8894;BME280;4483;48.622;9.230;2023-04-09T09:01:23;98578.97;;;13.70;51.10
8894;BME280;4483;48.622;9.230;2023-04-09T09:03:55;98582.03;;;13.80;49.75
8894;BME280;4483;48.622;9.230;2023-04-09T09:06:23;98576.97;;;14.17;49.33
8894;BME280;4483;48.622;9.230;2023-04-09T09:09:07;98575.31;;;14.73;47.89
8894;BME280;4483;48.622;9.230;2023-04-09T09:11:34;98576.63;;;15.00;48.10
8894;BME280;4483;48.622;9.230;2023-04-09T09:14:04;98574.13;;;14.99;48.13
8894;BME280;4483;48.622;9.230;2023-04-09T09:16:32;98575.44;;;14.52;47.97
8894;BME280;4483;48.622;9.230;2023-04-09T09:19:04;98573.97;;;14.26;48.67
8894;BME280;4483;48.622;9.230;2023-04-09T09:21:31;98572.34;;;14.24;49.10
8894;BME280;4483;48.622;9.230;2023-04-09T09:23:59;98573.59;;;15.09;47.93
8894;BME280;4483;48.622;9.230;2023-04-09T09:26:28;98564.72;;;15.85;45.93
8894;BME280;4483;48.622;9.230;2023-04-09T09:28:56;98567.97;;;15.73;45.95
8894;BME280;4483;48.622;9.230;2023-04-09T09:31:24;98578.72;;;15.11;45.35
8894;BME280;4483;48.622;9.230;2023-04-09T09:33:51;98585.78;;;14.72;46.46
8894;BME280;4483;48.622;9.230;2023-04-09T09:36:32;98572.81;;;14.90;47.25
8894;BME280;4483;48.622;9.230;2023-04-09T09:39:00;98572.00;;;15.61;45.65
8894;BME280;4483;48.622;9.230;2023-04-09T09:41:36;98572.19;;;16.25;45.32
8894;BME280;4483;48.622;9.230;2023-04-09T09:44:03;98572.47;;;16.19;45.37
8894;BME280;4483;48.622;9.230;2023-04-09T09:46:34;98577.47;;;16.06;43.92
8894;BME280;4483;48.622;9.230;2023-04-09T09:49:05;98574.97;;;16.05;44.15
8894;BME280;4483;48.622;9.230;2023-04-09T09:51:36;98565.59;;;16.83;43.05
8894;BME280;4483;48.622;9.230;2023-04-09T09:54:07;98561.91;;;17.50;40.70
8894;BME280;4483;48.622;9.230;2023-04-09T09:56:38;98566.13;;;17.96;40.26
8894;BME280;4483;48.622;9.230;2023-04-09T09:59:12;98561.47;;;18.01;39.06
8894;BME280;4483;48.622;9.230;2023-04-09T10:01:43;98569.91;;;18.20;39.42
8894;BME280;4483;48.622;9.230;2023-04-09T10:04:13;98572.09;;;18.42;39.08
8894;BME280;4483;48.622;9.230;2023-04-09T10:06:42;98571.22;;;18.83;39.55
8894;BME280;4483;48.622;9.230;2023-04-09T10:09:09;98564.19;;;18.98;36.75
8894;BME280;4483;48.622;9.230;2023-04-09T10:11:38;98561.22;;;19.31;36.62
8894;BME280;4483;48.622;9.230;2023-04-09T10:14:10;98566.50;;;19.17;35.97
8894;BME280;4483;48.622;9.230;2023-04-09T10:16:37;98567.16;;;18.65;35.26
8894;BME280;4483;48.622;9.230;2023-04-09T10:19:05;98565.56;;;18.77;35.55
8894;BME280;4483;48.622;9.230;2023-04-09T10:21:41;98567.72;;;18.56;35.13
8894;BME280;4483;48.622;9.230;2023-04-09T10:24:09;98565.28;;;18.67;35.01
8894;BME280;4483;48.622;9.230;2023-04-09T10:26:40;98557.31;;;18.83;34.22
8894;BME280;4483;48.622;9.230;2023-04-09T10:29:10;98561.50;;;18.99;33.66
8894;BME280;4483;48.622;9.230;2023-04-09T10:31:51;98548.16;;;19.45;34.00
8894;BME280;4483;48.622;9.230;2023-04-09T10:34:20;98554.66;;;19.52;32.67
8894;BME280;4483;48.622;9.230;2023-04-09T10:36:52;98554.81;;;19.49;32.20
8894;BME280;4483;48.622;9.230;2023-04-09T10:39:25;98548.22;;;19.43;33.22
8894;BME280;4483;48.622;9.230;2023-04-09T10:41:56;98562.78;;;19.06;32.92
8894;BME280;4483;48.622;9.230;2023-04-09T10:44:24;98560.16;;;19.06;32.88
8894;BME280;4483;48.622;9.230;2023-04-09T10:46:52;98562.19;;;19.16;32.44
8894;BME280;4483;48.622;9.230;2023-04-09T10:49:20;98567.50;;;18.31;33.62
8894;BME280;4483;48.622;9.230;2023-04-09T10:51:50;98565.25;;;17.52;34.46
8894;BME280;4483;48.622;9.230;2023-04-09T10:54:40;98569.09;;;16.67;36.08
8894;BME280;4483;48.622;9.230;2023-04-09T10:57:19;98563.13;;;16.32;36.54
8894;BME280;4483;48.622;9.230;2023-04-09T10:59:48;98569.88;;;16.19;37.55
8894;BME280;4483;48.622;9.230;2023-04-09T11:03:02;98566.34;;;15.87;37.93
8894;BME280;4483;48.622;9.230;2023-04-09T11:05:33;98559.63;;;15.83;37.81
8894;BME280;4483;48.622;9.230;2023-04-09T11:08:05;98570.38;;;15.76;38.47
8894;BME280;4483;48.622;9.230;2023-04-09T11:10:34;98565.03;;;15.62;38.43
8894;BME280;4483;48.622;9.230;2023-04-09T11:13:02;98565.09;;;15.25;38.36
8894;BME280;4483;48.622;9.230;2023-04-09T11:15:30;98556.97;;;15.13;38.68
8894;BME280;4483;48.622;9.230;2023-04-09T11:17:57;98565.97;;;15.06;39.46
8894;BME280;4483;48.622;9.230;2023-04-09T11:20:25;98563.16;;;14.92;40.61
8894;BME280;4483;48.622;9.230;2023-04-09T11:22:53;98555.00;;;15.19;40.05
8894;BME280;4483;48.622;9.230;2023-04-09T11:25:20;98551.72;;;16.02;39.18
8894;BME280;4483;48.622;9.230;2023-04-09T11:27:47;98533.97;;;16.75;37.96
8894;BME280;4483;48.622;9.230;2023-04-09T11:30:16;98527.47;;;16.67;37.65
8894;BME280;4483;48.622;9.230;2023-04-09T11:32:43;98530.66;;;16.56;37.74
8894;BME280;4483;48.622;9.230;2023-04-09T11:35:11;98535.81;;;16.41;37.91
8894;BME280;4483;48.622;9.230;2023-04-09T11:37:39;98533.44;;;16.03;38.05
8894;BME280;4483;48.622;9.230;2023-04-09T11:40:07;98535.16;;;15.87;38.45
8894;BME280;4483;48.622;9.230;2023-04-09T11:42:34;98532.19;;;16.43;38.10
8894;BME280;4483;48.622;9.230;2023-04-09T11:45:02;98527.28;;;17.17;37.37
8894;BME280;4483;48.622;9.230;2023-04-09T11:47:31;98529.09;;;18.05;36.81
8894;BME280;4483;48.622;9.230;2023-04-09T11:49:57;98519.97;;;18.68;35.76
8894;BME280;4483;48.622;9.230;2023-04-09T11:52:24;98521.97;;;18.91;35.42
8894;BME280;4483;48.622;9.230;2023-04-09T11:54:52;98517.34;;;19.36;34.63
8894;BME280;4483;48.622;9.230;2023-04-09T11:57:19;98518.53;;;19.18;35.05
8894;BME280;4483;48.622;9.230;2023-04-09T11:59:46;98512.91;;;19.24;34.82
8894;BME280;4483;48.622;9.230;2023-04-09T12:02:16;98521.50;;;18.85;35.09
8894;BME280;4483;48.622;9.230;2023-04-09T12:04:50;98530.59;;;18.65;34.59
8894;BME280;4483;48.622;9.230;2023-04-09T12:07:17;98521.00;;;18.38;35.51
8894;BME280;4483;48.622;9.230;2023-04-09T12:09:47;98518.81;;;18.02;35.66
8894;BME280;4483;48.622;9.230;2023-04-09T12:12:17;98522.25;;;17.74;36.17
8894;BME280;4483;48.622;9.230;2023-04-09T12:14:45;98523.88;;;17.46;35.83
8894;BME280;4483;48.622;9.230;2023-04-09T12:17:12;98520.56;;;17.87;36.60
8894;BME280;4483;48.622;9.230;2023-04-09T12:19:39;98517.00;;;18.46;35.76
8894;BME280;4483;48.622;9.230;2023-04-09T12:22:07;98510.00;;;19.01;35.77
8894;BME280;4483;48.622;9.230;2023-04-09T12:24:33;98500.91;;;19.60;34.78
8894;BME280;4483;48.622;9.230;2023-04-09T12:27:00;98504.28;;;20.00;33.89
8894;BME280;4483;48.622;9.230;2023-04-09T12:29:27;98501.16;;;20.08;33.97
8894;BME280;4483;48.622;9.230;2023-04-09T12:31:54;98506.72;;;20.03;32.84
8894;BME280;4483;48.622;9.230;2023-04-09T12:34:20;98504.41;;;19.98;32.91
8894;BME280;4483;48.622;9.230;2023-04-09T12:36:47;98503.72;;;20.22;32.79
8894;BME280;4483;48.622;9.230;2023-04-09T12:39:15;98496.13;;;20.42;32.69
8894;BME280;4483;48.622;9.230;2023-04-09T12:41:42;98491.88;;;20.77;32.40
8894;BME280;4483;48.622;9.230;2023-04-09T12:44:09;98489.91;;;21.05;32.57
8894;BME280;4483;48.622;9.230;2023-04-09T12:46:35;98489.44;;;20.51;31.34
8894;BME280;4483;48.622;9.230;2023-04-09T12:49:02;98491.63;;;20.44;31.32
8894;BME280;4483;48.622;9.230;2023-04-09T12:51:29;98478.44;;;20.46;31.38
8894;BME280;4483;48.622;9.230;2023-04-09T12:53:57;98483.94;;;20.66;31.58
8894;BME280;4483;48.622;9.230;2023-04-09T12:56:24;98483.13;;;20.53;31.10
8894;BME280;4483;48.622;9.230;2023-04-09T12:58:51;98482.84;;;20.45;31.14
8894;BME280;4483;48.622;9.230;2023-04-09T13:01:18;98478.16;;;20.38;31.62
8894;BME280;4483;48.622;9.230;2023-04-09T13:03:44;98477.09;;;20.28;31.61
8894;BME280;4483;48.622;9.230;2023-04-09T13:06:12;98456.03;;;20.54;32.14
8894;BME280;4483;48.622;9.230;2023-04-09T13:08:38;98460.75;;;20.37;31.58
8894;BME280;4483;48.622;9.230;2023-04-09T13:11:05;98460.34;;;19.67;32.21
8894;BME280;4483;48.622;9.230;2023-04-09T13:13:33;98454.88;;;19.45;33.12
8894;BME280;4483;48.622;9.230;2023-04-09T13:16:00;98460.88;;;19.60;33.22
8894;BME280;4483;48.622;9.230;2023-04-09T13:18:26;98454.09;;;19.70;32.31
8894;BME280;4483;48.622;9.230;2023-04-09T13:20:53;98455.84;;;19.94;32.73
8894;BME280;4483;48.622;9.230;2023-04-09T13:23:20;98450.13;;;20.27;32.44
8894;BME280;4483;48.622;9.230;2023-04-09T13:25:47;98452.78;;;20.38;31.41
8894;BME280;4483;48.622;9.230;2023-04-09T13:28:13;98443.19;;;20.26;30.30
8894;BME280;4483;48.622;9.230;2023-04-09T13:30:41;98444.25;;;20.24;30.62